Time;durP1;ratioP1;P1;durP2;ratioP2;P2;SDS_P1;SDS_P2;PMS_P1;PMS_P2;Temp;Humidity;BMP_temperature;BMP_pressure;BME280_temperature;BME280_humidity;BME280_pressure;Samples;Min_cycle;Max_cycle;Signal;HPM_P1;HPM_P2
2022/12/08 00:00:04;;;;;;;13.70;6.28;;;;;;;;;;5070053;28;20110;-78
2022/12/08 00:02:31;;;;;;;13.65;6.70;;;;;;;;;;5071255;28;20153;-78
2022/12/08 00:10:27;;;;;;;18.70;6.78;;;;;;;;;;5073997;28;20059;-78
2022/12/08 00:13:13;;;;;;;12.57;6.47;;;;;;;;;;5073539;28;20052;-78
2022/12/08 00:15:39;;;;;;;13.00;6.07;;;;;;;;;;5075510;28;20511;-78
2022/12/08 00:18:06;;;;;;;19.77;6.55;;;;;;;;;;5075312;28;20476;-79
2022/12/08 00:20:32;;;;;;;14.27;6.82;;;;;;;;;;5074469;28;20059;-78
2022/12/08 00:22:59;;;;;;;14.43;7.03;;;;;;;;;;5072832;28;20044;-77
2022/12/08 00:25:25;;;;;;;15.13;7.20;;;;;;;;;;5077368;28;20071;-78
2022/12/08 00:27:52;;;;;;;16.98;7.75;;;;;;;;;;5074662;28;20493;-79
2022/12/08 00:30:18;;;;;;;16.35;7.55;;;;;;;;;;5074113;28;20044;-79
2022/12/08 00:32:44;;;;;;;14.80;7.63;;;;;;;;;;5075059;28;20052;-77
2022/12/08 00:35:11;;;;;;;19.48;8.00;;;;;;;;;;5074490;28;20147;-77
2022/12/08 00:37:37;;;;;;;15.75;7.15;;;;;;;;;;5073218;28;20086;-77
2022/12/08 00:40:04;;;;;;;15.63;7.30;;;;;;;;;;5071969;28;20106;-77
2022/12/08 00:42:31;;;;;;;14.38;6.80;;;;;;;;;;5073502;28;20148;-78
2022/12/08 00:44:57;;;;;;;15.45;6.90;;;;;;;;;;5070402;28;20051;-77
2022/12/08 00:47:24;;;;;;;14.00;6.80;;;;;;;;;;5073755;28;20159;-78
2022/12/08 00:49:50;;;;;;;18.58;7.28;;;;;;;;;;5073822;28;20049;-78
2022/12/08 00:52:17;;;;;;;15.32;7.82;;;;;;;;;;5073602;28;20048;-77
2022/12/08 00:54:43;;;;;;;17.30;7.40;;;;;;;;;;5073294;28;20059;-78
2022/12/08 00:57:10;;;;;;;11.88;6.88;;;;;;;;;;5073797;28;20058;-76
2022/12/08 00:59:36;;;;;;;19.90;7.05;;;;;;;;;;5075566;28;20045;-78
2022/12/08 01:02:03;;;;;;;16.55;7.28;;;;;;;;;;5074938;28;20056;-78
2022/12/08 01:04:29;;;;;;;14.25;7.18;;;;;;;;;;5074036;28;20315;-77
2022/12/08 01:06:55;;;;;;;17.42;6.80;;;;;;;;;;5075438;28;20048;-78
2022/12/08 01:09:22;;;;;;;16.40;7.03;;;;;;;;;;5075027;28;20108;-78
2022/12/08 01:11:48;;;;;;;11.93;6.53;;;;;;;;;;5087937;28;20059;-78
2022/12/08 01:14:15;;;;;;;14.68;6.60;;;;;;;;;;5077407;28;20056;-78
2022/12/08 01:16:42;;;;;;;18.40;7.03;;;;;;;;;;5073625;28;20139;-78
2022/12/08 01:19:09;;;;;;;16.25;6.90;;;;;;;;;;5073490;28;20118;-79
2022/12/08 01:21:36;;;;;;;19.02;7.25;;;;;;;;;;5071428;28;20051;-79
2022/12/08 01:24:02;;;;;;;14.48;7.07;;;;;;;;;;5071442;28;20216;-78
2022/12/08 01:26:29;;;;;;;15.45;6.85;;;;;;;;;;5073478;28;20052;-78
2022/12/08 01:28:55;;;;;;;12.85;6.32;;;;;;;;;;5075674;28;20060;-78
2022/12/08 01:31:22;;;;;;;13.32;6.40;;;;;;;;;;5067756;28;20112;-79
2022/12/08 01:33:48;;;;;;;13.70;6.80;;;;;;;;;;5066382;28;20410;-77
2022/12/08 01:36:18;;;;;;;15.68;6.68;;;;;;;;;;5072044;28;20049;-78
2022/12/08 01:38:45;;;;;;;12.00;6.68;;;;;;;;;;5071836;28;20079;-77
2022/12/08 01:41:15;;;;;;;16.45;7.07;;;;;;;;;;5074652;28;20040;-78
2022/12/08 01:43:48;;;;;;;17.17;7.05;;;;;;;;;;5071281;28;20044;-78
2022/12/08 01:46:15;;;;;;;13.10;6.35;;;;;;;;;;5072464;28;20056;-78
2022/12/08 01:48:42;;;;;;;16.55;6.78;;;;;;;;;;5073484;28;20049;-78
2022/12/08 01:51:08;;;;;;;15.02;6.60;;;;;;;;;;5082107;28;20032;-77
2022/12/08 01:53:35;;;;;;;13.13;6.68;;;;;;;;;;5106820;28;20058;-77
2022/12/08 01:56:05;;;;;;;13.68;6.72;;;;;;;;;;5109657;28;20086;-78
2022/12/08 01:58:36;;;;;;;13.32;6.65;;;;;;;;;;5108803;28;20082;-78
2022/12/08 02:01:03;;;;;;;14.65;6.90;;;;;;;;;;5109798;28;20107;-77
2022/12/08 02:03:35;;;;;;;15.38;7.53;;;;;;;;;;5094446;28;20078;-78
2022/12/08 02:06:02;;;;;;;13.40;6.88;;;;;;;;;;5090351;28;20063;-78
2022/12/08 02:08:29;;;;;;;15.27;6.68;;;;;;;;;;5090316;28;20629;-78
2022/12/08 02:10:56;;;;;;;16.30;6.75;;;;;;;;;;5092326;28;20060;-78
2022/12/08 02:13:24;;;;;;;16.08;7.10;;;;;;;;;;5091500;28;20074;-79
2022/12/08 02:16:02;;;;;;;18.88;7.03;;;;;;;;;;5095320;28;20117;-77
2022/12/08 02:18:41;;;;;;;12.73;6.15;;;;;;;;;;5111667;28;20063;-77
2022/12/08 02:21:26;;;;;;;16.00;7.60;;;;;;;;;;5110502;28;20059;-78
2022/12/08 02:24:13;;;;;;;15.97;6.97;;;;;;;;;;5097674;28;20052;-76
2022/12/08 02:26:40;;;;;;;18.50;7.15;;;;;;;;;;5094246;28;20048;-78
2022/12/08 02:29:24;;;;;;;20.33;6.95;;;;;;;;;;5093866;28;20044;-78
2022/12/08 02:32:07;;;;;;;10.33;5.47;;;;;;;;;;5093377;28;20526;-77
2022/12/08 02:34:34;;;;;;;11.85;6.57;;;;;;;;;;5085037;28;20294;-78
2022/12/08 02:37:14;;;;;;;12.55;6.80;;;;;;;;;;5075559;28;20052;-78
2022/12/08 02:39:40;;;;;;;12.13;6.93;;;;;;;;;;5073788;28;20083;-77
2022/12/08 02:42:13;;;;;;;14.20;6.97;;;;;;;;;;5074622;28;20045;-78
2022/12/08 02:44:47;;;;;;;11.15;6.40;;;;;;;;;;5072706;28;20048;-77
2022/12/08 02:47:15;;;;;;;11.95;6.68;;;;;;;;;;5076455;28;20058;-78
2022/12/08 02:49:42;;;;;;;13.00;6.75;;;;;;;;;;5075053;28;20053;-78
2022/12/08 02:52:11;;;;;;;13.43;7.13;;;;;;;;;;5072005;28;20052;-78
2022/12/08 02:54:40;;;;;;;15.63;7.15;;;;;;;;;;5072282;28;20052;-79
2022/12/08 02:57:13;;;;;;;13.10;7.43;;;;;;;;;;5073665;28;20044;-78
2022/12/08 02:59:48;;;;;;;14.60;7.90;;;;;;;;;;5073040;28;20048;-78
2022/12/08 03:02:18;;;;;;;14.63;7.63;;;;;;;;;;5073662;28;20416;-78
2022/12/08 03:04:49;;;;;;;13.95;7.55;;;;;;;;;;5073905;28;20558;-78
2022/12/08 03:07:18;;;;;;;21.42;8.45;;;;;;;;;;5073668;28;20055;-78
2022/12/08 03:09:47;;;;;;;16.80;8.45;;;;;;;;;;5073439;28;20048;-78
2022/12/08 03:12:38;;;;;;;15.65;8.43;;;;;;;;;;5073102;28;20059;-76
2022/12/08 03:15:13;;;;;;;19.13;9.10;;;;;;;;;;5072904;28;20059;-79
2022/12/08 03:17:44;;;;;;;15.63;8.07;;;;;;;;;;5074150;28;20505;-79
2022/12/08 03:20:12;;;;;;;17.45;8.32;;;;;;;;;;5071900;28;20051;-78
2022/12/08 03:22:40;;;;;;;16.33;8.43;;;;;;;;;;5072999;28;20071;-79
2022/12/08 03:25:08;;;;;;;19.67;9.38;;;;;;;;;;5075337;28;20049;-79
2022/12/08 03:27:34;;;;;;;18.13;8.82;;;;;;;;;;5078660;28;20059;-78
2022/12/08 03:30:01;;;;;;;19.45;9.40;;;;;;;;;;5076972;28;20048;-78
2022/12/08 03:32:46;;;;;;;20.08;9.68;;;;;;;;;;5077568;28;20080;-79
2022/12/08 03:35:14;;;;;;;17.70;8.85;;;;;;;;;;5079389;28;20048;-79
2022/12/08 03:37:41;;;;;;;19.10;9.63;;;;;;;;;;5079356;28;20044;-79
2022/12/08 03:40:10;;;;;;;21.73;9.63;;;;;;;;;;5085415;28;20056;-78
2022/12/08 03:42:36;;;;;;;21.15;10.75;;;;;;;;;;5079798;28;20055;-77
2022/12/08 03:45:03;;;;;;;19.35;9.57;;;;;;;;;;5083433;28;20079;-78
2022/12/08 03:47:29;;;;;;;20.00;10.25;;;;;;;;;;5081793;28;20127;-78
2022/12/08 03:49:56;;;;;;;20.80;10.45;;;;;;;;;;5078318;28;20139;-80
2022/12/08 03:52:22;;;;;;;18.38;9.32;;;;;;;;;;5073885;28;20053;-78
2022/12/08 03:54:49;;;;;;;22.63;10.13;;;;;;;;;;5074730;28;20044;-78
2022/12/08 03:57:15;;;;;;;20.70;10.52;;;;;;;;;;5074366;28;20056;-78
2022/12/08 03:59:41;;;;;;;24.20;10.95;;;;;;;;;;5071301;28;20511;-79
2022/12/08 04:02:08;;;;;;;19.95;10.55;;;;;;;;;;5072053;28;20055;-79
2022/12/08 04:04:34;;;;;;;20.70;10.43;;;;;;;;;;5072354;28;20052;-78
2022/12/08 04:07:01;;;;;;;17.92;9.50;;;;;;;;;;5073285;28;20047;-79
2022/12/08 04:09:27;;;;;;;19.38;9.93;;;;;;;;;;5072810;28;20063;-79
2022/12/08 04:11:54;;;;;;;21.73;9.60;;;;;;;;;;5076680;28;20052;-79
2022/12/08 04:14:20;;;;;;;19.30;9.00;;;;;;;;;;5072188;28;20060;-78
2022/12/08 04:16:46;;;;;;;18.58;9.82;;;;;;;;;;5075304;28;20063;-77
2022/12/08 04:19:13;;;;;;;20.92;8.90;;;;;;;;;;5071294;28;20044;-78
2022/12/08 04:21:40;;;;;;;18.42;9.07;;;;;;;;;;5073383;28;20469;-76
2022/12/08 04:24:06;;;;;;;15.90;8.85;;;;;;;;;;5074804;28;20044;-77
2022/12/08 04:26:32;;;;;;;20.15;9.13;;;;;;;;;;5075333;28;20048;-76
2022/12/08 04:28:59;;;;;;;17.27;9.02;;;;;;;;;;5075399;28;20065;-77
2022/12/08 04:31:25;;;;;;;18.08;8.90;;;;;;;;;;5075028;28;20136;-78
2022/12/08 04:33:52;;;;;;;17.50;9.00;;;;;;;;;;5074645;28;20098;-79
2022/12/08 04:36:18;;;;;;;15.70;9.07;;;;;;;;;;5071436;28;20052;-79
2022/12/08 04:38:45;;;;;;;16.55;9.45;;;;;;;;;;5071550;28;20049;-79
2022/12/08 04:41:11;;;;;;;17.83;9.00;;;;;;;;;;5071426;28;20052;-79
2022/12/08 04:43:37;;;;;;;17.90;8.30;;;;;;;;;;5069135;28;20052;-79
2022/12/08 04:46:07;;;;;;;17.27;9.13;;;;;;;;;;5068740;28;20041;-79
2022/12/08 04:48:35;;;;;;;16.42;9.43;;;;;;;;;;5071353;28;20044;-79
2022/12/08 04:51:02;;;;;;;19.10;9.75;;;;;;;;;;5071984;28;20067;-79
2022/12/08 04:53:28;;;;;;;18.27;9.63;;;;;;;;;;5068944;28;20063;-77
2022/12/08 04:55:55;;;;;;;20.98;9.57;;;;;;;;;;5071689;28;20060;-79
2022/12/08 04:58:21;;;;;;;17.48;9.07;;;;;;;;;;5072380;28;20066;-78
2022/12/08 05:00:48;;;;;;;20.50;10.15;;;;;;;;;;5070726;28;20041;-79
2022/12/08 05:03:14;;;;;;;21.05;9.63;;;;;;;;;;5070574;28;20537;-80
2022/12/08 05:05:41;;;;;;;19.30;9.32;;;;;;;;;;5071947;28;20059;-79
2022/12/08 05:08:08;;;;;;;16.90;9.45;;;;;;;;;;5071444;28;20093;-78
2022/12/08 05:10:35;;;;;;;18.67;9.63;;;;;;;;;;5070341;28;20052;-80
2022/12/08 05:13:01;;;;;;;23.00;10.07;;;;;;;;;;5070163;28;20049;-80
2022/12/08 05:15:27;;;;;;;22.80;10.75;;;;;;;;;;5069311;28;20052;-80
2022/12/08 05:17:54;;;;;;;21.15;11.23;;;;;;;;;;5072544;28;20424;-80
2022/12/08 05:20:20;;;;;;;23.80;11.75;;;;;;;;;;5072630;28;20056;-80
2022/12/08 05:22:46;;;;;;;19.60;10.82;;;;;;;;;;5070154;28;20052;-79
2022/12/08 05:25:13;;;;;;;23.98;11.50;;;;;;;;;;5072032;28;20053;-80
2022/12/08 05:27:42;;;;;;;26.45;12.15;;;;;;;;;;5072147;28;20186;-80
2022/12/08 05:30:09;;;;;;;24.48;11.93;;;;;;;;;;5069493;28;20133;-80
2022/12/08 05:32:35;;;;;;;23.20;11.82;;;;;;;;;;5072533;28;20109;-79
2022/12/08 05:35:01;;;;;;;26.48;12.02;;;;;;;;;;5070013;28;20068;-80
2022/12/08 05:37:28;;;;;;;22.67;11.98;;;;;;;;;;5068351;28;20051;-78
2022/12/08 05:39:54;;;;;;;26.08;12.65;;;;;;;;;;5067087;28;20052;-78
2022/12/08 05:42:21;;;;;;;26.00;12.88;;;;;;;;;;5067639;28;20082;-78
2022/12/08 05:44:50;;;;;;;30.30;13.38;;;;;;;;;;5067093;28;20052;-77
2022/12/08 05:47:16;;;;;;;31.48;14.00;;;;;;;;;;5068224;28;20040;-77
2022/12/08 05:49:43;;;;;;;32.55;14.45;;;;;;;;;;5067157;28;20064;-79
2022/12/08 05:52:10;;;;;;;28.17;14.13;;;;;;;;;;5068155;28;20049;-79
2022/12/08 05:54:37;;;;;;;31.60;14.27;;;;;;;;;;5068531;28;20048;-79
2022/12/08 05:57:03;;;;;;;30.08;13.68;;;;;;;;;;5069979;28;20064;-79
2022/12/08 05:59:29;;;;;;;28.77;14.43;;;;;;;;;;5069831;28;20074;-80
2022/12/08 06:01:56;;;;;;;30.17;13.77;;;;;;;;;;5074666;28;20480;-80
2022/12/08 06:04:22;;;;;;;26.05;13.23;;;;;;;;;;5074708;28;20040;-79
2022/12/08 06:06:49;;;;;;;28.25;13.13;;;;;;;;;;5076168;28;20052;-79
2022/12/08 06:09:15;;;;;;;31.13;15.05;;;;;;;;;;5075471;28;20534;-80
2022/12/08 06:11:41;;;;;;;38.15;17.70;;;;;;;;;;5076473;28;20052;-80
2022/12/08 06:14:11;;;;;;;52.45;22.27;;;;;;;;;;5074279;28;20052;-80
2022/12/08 06:16:37;;;;;;;66.07;28.50;;;;;;;;;;5075061;28;20053;-80
2022/12/08 06:19:04;;;;;;;73.57;30.67;;;;;;;;;;5076102;28;20044;-79
2022/12/08 06:21:30;;;;;;;72.70;30.98;;;;;;;;;;5090131;28;20059;-78
2022/12/08 06:23:56;;;;;;;66.28;29.52;;;;;;;;;;5079723;28;20055;-81
2022/12/08 06:26:26;;;;;;;57.72;26.60;;;;;;;;;;5075877;28;20067;-80
2022/12/08 06:28:52;;;;;;;63.58;27.60;;;;;;;;;;5072192;28;20049;-80
2022/12/08 06:31:20;;;;;;;53.20;23.92;;;;;;;;;;5074272;28;20449;-80
2022/12/08 06:33:47;;;;;;;54.25;22.65;;;;;;;;;;5073079;28;20562;-79
2022/12/08 06:36:14;;;;;;;41.67;19.10;;;;;;;;;;5075511;28;20052;-79
2022/12/08 06:38:41;;;;;;;36.10;16.75;;;;;;;;;;5075071;28;20151;-81
2022/12/08 06:41:09;;;;;;;34.28;14.82;;;;;;;;;;5080961;28;20048;-79
2022/12/08 06:43:36;;;;;;;27.95;13.18;;;;;;;;;;5083397;28;20298;-79
2022/12/08 06:46:04;;;;;;;23.63;12.07;;;;;;;;;;5076958;28;20076;-79
2022/12/08 06:48:30;;;;;;;23.33;11.77;;;;;;;;;;5073739;28;20110;-79
2022/12/08 06:51:04;;;;;;;25.15;12.00;;;;;;;;;;5074700;28;20155;-79
2022/12/08 06:53:30;;;;;;;24.83;11.90;;;;;;;;;;5072925;28;20528;-80
2022/12/08 06:55:56;;;;;;;25.63;11.88;;;;;;;;;;5074322;28;20067;-80
2022/12/08 06:58:25;;;;;;;26.75;12.18;;;;;;;;;;5073405;28;20048;-79
2022/12/08 07:00:52;;;;;;;26.33;11.63;;;;;;;;;;5073685;28;20116;-79
2022/12/08 07:03:18;;;;;;;25.10;11.77;;;;;;;;;;5073637;28;20045;-79
2022/12/08 07:05:46;;;;;;;23.75;11.40;;;;;;;;;;5074649;28;20072;-80
2022/12/08 07:08:12;;;;;;;27.90;13.05;;;;;;;;;;5073933;28;20079;-80
2022/12/08 07:10:39;;;;;;;24.77;11.75;;;;;;;;;;5074498;28;20121;-80
2022/12/08 07:13:05;;;;;;;25.30;11.95;;;;;;;;;;5072205;28;20060;-79
2022/12/08 07:15:31;;;;;;;26.42;12.65;;;;;;;;;;5072803;28;20051;-78
2022/12/08 07:17:58;;;;;;;26.88;12.25;;;;;;;;;;5074022;28;20044;-79
2022/12/08 07:20:25;;;;;;;27.60;12.70;;;;;;;;;;5082363;28;20048;-78
2022/12/08 07:22:58;;;;;;;28.20;12.82;;;;;;;;;;5087733;28;20064;-78
2022/12/08 07:25:24;;;;;;;26.98;13.35;;;;;;;;;;5088356;28;20066;-79
2022/12/08 07:27:52;;;;;;;26.60;12.05;;;;;;;;;;5087649;28;20062;-79
2022/12/08 07:30:18;;;;;;;30.20;12.95;;;;;;;;;;5085398;28;20546;-79
2022/12/08 07:32:45;;;;;;;24.08;11.90;;;;;;;;;;5072555;28;20048;-79
2022/12/08 07:35:11;;;;;;;26.60;12.50;;;;;;;;;;5073350;28;20051;-80
2022/12/08 07:37:37;;;;;;;26.40;11.50;;;;;;;;;;5072790;28;20060;-78
2022/12/08 07:40:05;;;;;;;23.25;11.38;;;;;;;;;;5073526;28;20135;-80
2022/12/08 07:42:32;;;;;;;22.85;11.35;;;;;;;;;;5072070;28;20413;-79
2022/12/08 07:44:58;;;;;;;19.33;10.38;;;;;;;;;;5071557;28;20056;-80
2022/12/08 07:47:25;;;;;;;23.35;11.93;;;;;;;;;;5073111;28;20045;-81
2022/12/08 07:49:51;;;;;;;21.85;11.10;;;;;;;;;;5073965;28;20048;-80
2022/12/08 07:52:17;;;;;;;24.67;12.25;;;;;;;;;;5071285;28;20052;-77
2022/12/08 07:54:44;;;;;;;24.48;11.70;;;;;;;;;;5072444;28;20114;-80
2022/12/08 07:57:10;;;;;;;22.23;11.23;;;;;;;;;;5072690;28;20070;-79
2022/12/08 07:59:37;;;;;;;18.98;10.68;;;;;;;;;;5073263;28;20044;-80
2022/12/08 08:02:03;;;;;;;22.38;11.05;;;;;;;;;;5073127;28;20052;-79
2022/12/08 08:04:49;;;;;;;20.83;10.60;;;;;;;;;;5072618;28;20054;-79
2022/12/08 08:07:16;;;;;;;22.08;10.27;;;;;;;;;;5070787;28;20423;-78
2022/12/08 08:09:42;;;;;;;17.92;9.55;;;;;;;;;;5074289;28;20067;-79
2022/12/08 08:12:09;;;;;;;20.88;10.40;;;;;;;;;;5073999;28;20147;-80
2022/12/08 08:14:55;;;;;;;20.33;9.73;;;;;;;;;;5073298;28;20052;-80
2022/12/08 08:17:22;;;;;;;21.23;10.15;;;;;;;;;;5073866;28;20049;-80
2022/12/08 08:19:48;;;;;;;16.65;9.40;;;;;;;;;;5073307;28;20063;-77
2022/12/08 08:22:15;;;;;;;19.13;10.10;;;;;;;;;;5072709;28;20051;-79
2022/12/08 08:24:41;;;;;;;21.65;10.02;;;;;;;;;;5072359;28;20052;-78
2022/12/08 08:27:10;;;;;;;16.55;9.32;;;;;;;;;;5073922;28;20263;-81
2022/12/08 08:29:37;;;;;;;20.20;10.85;;;;;;;;;;5074039;28;20044;-78
2022/12/08 08:32:03;;;;;;;19.20;9.05;;;;;;;;;;5073915;28;20076;-80
2022/12/08 08:34:29;;;;;;;17.90;9.38;;;;;;;;;;5073684;28;20052;-80
2022/12/08 08:36:56;;;;;;;16.98;8.95;;;;;;;;;;5073182;28;20118;-80
2022/12/08 08:39:22;;;;;;;19.80;9.98;;;;;;;;;;5070776;28;20131;-80
2022/12/08 08:41:49;;;;;;;19.13;9.60;;;;;;;;;;5071568;28;20048;-78
2022/12/08 08:44:15;;;;;;;16.58;9.57;;;;;;;;;;5070903;28;20702;-78
2022/12/08 08:46:41;;;;;;;22.25;9.55;;;;;;;;;;5071379;28;20064;-77
2022/12/08 08:49:08;;;;;;;16.98;9.32;;;;;;;;;;5079460;28;20078;-78
2022/12/08 08:51:35;;;;;;;18.27;9.48;;;;;;;;;;5079282;28;20151;-80
2022/12/08 08:54:01;;;;;;;16.63;9.32;;;;;;;;;;5069427;28;20048;-80
2022/12/08 08:56:27;;;;;;;15.15;8.73;;;;;;;;;;5072374;28;20052;-79
2022/12/08 08:58:54;;;;;;;17.90;9.13;;;;;;;;;;5071690;28;20059;-77
2022/12/08 09:01:22;;;;;;;15.88;8.45;;;;;;;;;;5072644;28;20511;-78
2022/12/08 09:03:49;;;;;;;15.52;8.60;;;;;;;;;;5079171;28;20045;-78
2022/12/08 09:06:16;;;;;;;17.08;8.15;;;;;;;;;;5076027;28;20499;-79
2022/12/08 09:08:43;;;;;;;15.85;8.77;;;;;;;;;;5075533;28;20052;-78
2022/12/08 09:11:09;;;;;;;16.83;8.85;;;;;;;;;;5077635;28;20513;-79
2022/12/08 09:13:35;;;;;;;16.75;8.13;;;;;;;;;;5074375;28;20055;-78
2022/12/08 09:16:03;;;;;;;17.33;9.10;;;;;;;;;;5074748;28;20048;-78
2022/12/08 09:18:30;;;;;;;17.90;9.00;;;;;;;;;;5087470;28;20058;-79
2022/12/08 09:21:02;;;;;;;13.75;8.00;;;;;;;;;;5085817;28;20044;-79
2022/12/08 09:23:28;;;;;;;20.38;9.07;;;;;;;;;;5077374;28;20071;-77
2022/12/08 09:26:01;;;;;;;14.98;8.23;;;;;;;;;;5079071;28;20044;-79
2022/12/08 09:28:28;;;;;;;16.77;8.52;;;;;;;;;;5068720;28;20165;-79
2022/12/08 09:30:54;;;;;;;13.98;8.43;;;;;;;;;;5071551;28;20492;-78
2022/12/08 09:33:21;;;;;;;16.50;7.97;;;;;;;;;;5072211;28;20698;-78
2022/12/08 09:35:50;;;;;;;15.43;8.38;;;;;;;;;;5076975;28;20052;-77
2022/12/08 09:38:16;;;;;;;15.45;8.32;;;;;;;;;;5091953;28;20284;-77
2022/12/08 09:40:50;;;;;;;15.93;7.97;;;;;;;;;;5085365;28;20459;-76
2022/12/08 09:43:22;;;;;;;14.23;8.18;;;;;;;;;;5087449;28;20479;-78
2022/12/08 09:45:50;;;;;;;16.55;8.63;;;;;;;;;;5088131;28;20032;-78
2022/12/08 09:48:23;;;;;;;15.82;7.82;;;;;;;;;;5078671;28;20401;-77
2022/12/08 09:50:52;;;;;;;15.10;8.00;;;;;;;;;;5069352;28;20044;-78
2022/12/08 09:53:26;;;;;;;18.35;8.00;;;;;;;;;;5067102;28;20477;-78
2022/12/08 09:56:21;;;;;;;16.92;8.68;;;;;;;;;;5068824;28;20139;-78
2022/12/08 09:58:54;;;;;;;14.48;8.20;;;;;;;;;;5069200;28;20139;-78
2022/12/08 10:01:21;;;;;;;15.95;8.40;;;;;;;;;;5069690;28;20504;-78
2022/12/08 10:03:48;;;;;;;14.50;8.10;;;;;;;;;;5068522;28;20071;-79
2022/12/08 10:06:23;;;;;;;15.25;8.20;;;;;;;;;;5070678;28;20157;-78
2022/12/08 10:08:50;;;;;;;;;;;;;;;;;;5069893;28;20468;-79
2022/12/08 10:11:23;;;;;;;14.77;8.15;;;;;;;;;;5070615;28;19940;-78
2022/12/08 10:13:57;;;;;;;17.60;8.07;;;;;;;;;;5068872;28;20064;-78
2022/12/08 10:16:28;;;;;;;14.55;8.30;;;;;;;;;;5070180;28;20203;-78
2022/12/08 10:19:15;;;;;;;12.77;7.47;;;;;;;;;;5070548;28;20044;-78
2022/12/08 10:21:42;;;;;;;14.60;7.60;;;;;;;;;;5070275;28;20139;-78
2022/12/08 10:24:17;;;;;;;14.35;7.63;;;;;;;;;;5068547;28;20076;-77
2022/12/08 10:26:44;;;;;;;15.50;7.30;;;;;;;;;;5070245;28;20407;-79
2022/12/08 10:29:12;;;;;;;12.20;6.50;;;;;;;;;;5067054;28;20045;-78
2022/12/08 10:31:38;;;;;;;15.00;7.13;;;;;;;;;;5070592;28;20064;-79
2022/12/08 10:34:16;;;;;;;14.02;6.82;;;;;;;;;;5070139;28;20048;-78
2022/12/08 10:36:46;;;;;;;13.75;6.60;;;;;;;;;;5069192;28;20049;-78
2022/12/08 10:39:29;;;;;;;13.02;6.93;;;;;;;;;;5069914;28;20071;-78
2022/12/08 10:42:01;;;;;;;13.27;7.30;;;;;;;;;;5070689;28;20052;-81
2022/12/08 10:44:28;;;;;;;13.88;7.07;;;;;;;;;;5069442;28;20044;-80
2022/12/08 10:46:54;;;;;;;13.10;7.07;;;;;;;;;;5074385;28;20104;-80
2022/12/08 10:49:31;;;;;;;13.93;6.93;;;;;;;;;;5075288;28;20040;-80
2022/12/08 10:51:57;;;;;;;12.45;6.38;;;;;;;;;;5075899;28;20132;-79
2022/12/08 10:54:24;;;;;;;10.25;6.13;;;;;;;;;;5075717;28;20059;-81
2022/12/08 10:56:54;;;;;;;13.13;7.10;;;;;;;;;;5075162;28;20044;-82
2022/12/08 10:59:20;;;;;;;22.38;7.43;;;;;;;;;;5084046;28;20489;-80
2022/12/08 11:01:48;;;;;;;11.90;6.78;;;;;;;;;;5094251;28;20072;-80
2022/12/08 11:04:19;;;;;;;12.65;6.82;;;;;;;;;;5093686;28;20066;-80
2022/12/08 11:06:47;;;;;;;12.45;6.85;;;;;;;;;;5095105;28;20051;-81
2022/12/08 11:09:16;;;;;;;13.82;7.20;;;;;;;;;;5093467;28;20044;-80
2022/12/08 11:11:58;;;;;;;14.25;6.88;;;;;;;;;;5093945;28;20143;-81
2022/12/08 11:14:25;;;;;;;14.77;6.88;;;;;;;;;;5094560;28;20047;-81
2022/12/08 11:16:52;;;;;;;14.52;6.93;;;;;;;;;;5095979;28;20048;-81
2022/12/08 11:19:20;;;;;;;14.85;7.57;;;;;;;;;;5104643;28;20052;-79
2022/12/08 11:21:46;;;;;;;14.48;7.38;;;;;;;;;;5109455;28;20058;-80
2022/12/08 11:24:13;;;;;;;14.40;6.85;;;;;;;;;;5092695;28;20055;-82
2022/12/08 11:26:40;;;;;;;13.95;6.60;;;;;;;;;;5093782;28;20326;-80
2022/12/08 11:29:09;;;;;;;13.25;6.93;;;;;;;;;;5092461;28;20048;-81
2022/12/08 11:31:42;;;;;;;14.43;6.82;;;;;;;;;;5092620;28;20443;-81
2022/12/08 11:34:17;;;;;;;11.55;6.20;;;;;;;;;;5086461;28;20049;-80
2022/12/08 11:36:44;;;;;;;12.80;6.00;;;;;;;;;;5072862;28;20044;-81
2022/12/08 11:39:11;;;;;;;10.45;6.00;;;;;;;;;;5073040;28;20053;-82
2022/12/08 11:41:39;;;;;;;11.50;6.20;;;;;;;;;;5073094;28;20052;-81
2022/12/08 11:44:09;;;;;;;12.68;6.00;;;;;;;;;;5071275;28;20040;-80
2022/12/08 11:46:45;;;;;;;15.20;6.05;;;;;;;;;;5073350;28;20504;-81
2022/12/08 11:49:12;;;;;;;11.13;6.35;;;;;;;;;;5073744;28;20045;-81
2022/12/08 11:51:45;;;;;;;13.80;6.38;;;;;;;;;;5073582;28;20063;-78
2022/12/08 11:54:24;;;;;;;13.15;7.00;;;;;;;;;;5071692;28;20489;-80
2022/12/08 11:56:53;;;;;;;14.85;7.28;;;;;;;;;;5072304;28;20059;-81
2022/12/08 11:59:33;;;;;;;14.77;7.10;;;;;;;;;;5073189;28;20063;-81
2022/12/08 12:02:00;;;;;;;12.48;6.57;;;;;;;;;;5072656;28;20057;-81
2022/12/08 12:04:30;;;;;;;13.13;6.68;;;;;;;;;;5073304;28;20135;-80
2022/12/08 12:07:12;;;;;;;11.90;6.15;;;;;;;;;;5074112;28;20056;-81
2022/12/08 12:09:57;;;;;;;11.63;6.20;;;;;;;;;;5071888;28;20044;-80
2022/12/08 12:12:43;;;;;;;12.45;6.13;;;;;;;;;;5069669;28;20492;-79
2022/12/08 12:15:12;;;;;;;11.73;6.75;;;;;;;;;;5069158;28;21791;-79
2022/12/08 12:17:41;;;;;;;16.75;7.82;;;;;;;;;;5067429;28;20048;-80
2022/12/08 12:20:16;;;;;;;14.77;7.72;;;;;;;;;;5070058;28;20048;-80
2022/12/08 12:22:45;;;;;;;17.77;7.70;;;;;;;;;;5070375;28;20060;-79
2022/12/08 12:25:16;;;;;;;15.65;7.80;;;;;;;;;;5083044;28;20262;-80
2022/12/08 12:27:43;;;;;;;15.57;7.57;;;;;;;;;;5086422;28;20052;-80
2022/12/08 12:30:38;;;;;;;14.35;7.28;;;;;;;;;;5089834;28;20259;-81
2022/12/08 12:33:10;;;;;;;16.80;7.53;;;;;;;;;;5076011;28;20045;-81
2022/12/08 12:35:40;;;;;;;14.30;7.65;;;;;;;;;;5084103;28;20131;-81
2022/12/08 12:39:00;;;;;;;15.82;7.85;;;;;;;;;;5078369;28;20402;-83
2022/12/08 12:41:03;;;;;;;18.88;8.38;;;;;;;;;;5080975;28;20131;-82
2022/12/08 12:43:33;;;;;;;18.88;7.97;;;;;;;;;;5088047;28;20048;-81
2022/12/08 12:46:37;;;;;;;14.52;7.35;;;;;;;;;;5089300;28;20056;-81
2022/12/08 12:49:22;;;;;;;14.52;7.13;;;;;;;;;;5093080;28;20040;-82
2022/12/08 12:51:53;;;;;;;15.48;6.72;;;;;;;;;;5077041;28;20143;-79
2022/12/08 12:54:24;;;;;;;15.60;7.45;;;;;;;;;;5072105;28;20056;-80
2022/12/08 12:56:52;;;;;;;13.00;6.63;;;;;;;;;;5071888;28;20048;-81
2022/12/08 12:59:27;;;;;;;15.13;7.80;;;;;;;;;;5070555;28;20056;-81
2022/12/08 13:01:54;;;;;;;14.00;7.25;;;;;;;;;;5071855;28;20136;-83
2022/12/08 13:04:32;;;;;;;12.73;7.18;;;;;;;;;;5071771;28;20056;-81
2022/12/08 13:06:59;;;;;;;11.05;6.60;;;;;;;;;;5071926;28;20044;-80
2022/12/08 13:09:27;;;;;;;16.38;6.53;;;;;;;;;;5070681;28;20047;-81
2022/12/08 13:12:09;;;;;;;14.85;7.05;;;;;;;;;;5072458;28;20055;-80
2022/12/08 13:14:37;;;;;;;12.00;6.15;;;;;;;;;;5071664;28;20065;-81
2022/12/08 13:17:06;;;;;;;12.57;6.68;;;;;;;;;;5072296;28;20472;-81
2022/12/08 13:19:35;;;;;;;12.07;6.47;;;;;;;;;;5071856;28;20058;-81
2022/12/08 13:22:02;;;;;;;15.30;7.07;;;;;;;;;;5069681;28;20040;-80
2022/12/08 13:24:33;;;;;;;12.25;6.18;;;;;;;;;;5070193;28;20052;-81
2022/12/08 13:27:02;;;;;;;14.32;6.40;;;;;;;;;;5073146;28;20409;-82
2022/12/08 13:29:29;;;;;;;12.82;6.78;;;;;;;;;;5071019;28;20048;-81
2022/12/08 13:31:59;;;;;;;10.20;6.22;;;;;;;;;;5070018;28;20517;-81
2022/12/08 13:34:49;;;;;;;11.18;5.95;;;;;;;;;;5072442;28;20050;-80
2022/12/08 13:37:30;;;;;;;12.57;6.00;;;;;;;;;;5073735;28;20053;-81
2022/12/08 13:40:02;;;;;;;12.65;5.55;;;;;;;;;;5071163;28;20268;-81
2022/12/08 13:42:41;;;;;;;9.05;4.68;;;;;;;;;;5069846;28;20044;-82
2022/12/08 13:45:10;;;;;;;10.48;5.15;;;;;;;;;;5071314;28;20059;-82
2022/12/08 13:48:01;;;;;;;9.50;5.22;;;;;;;;;;5074861;28;20048;-82
2022/12/08 13:50:53;;;;;;;13.30;5.20;;;;;;;;;;5084719;28;20257;-82
2022/12/08 13:53:40;;;;;;;8.60;4.85;;;;;;;;;;5080745;28;20529;-80
2022/12/08 13:56:28;;;;;;;11.02;5.22;;;;;;;;;;5088184;28;20048;-81
2022/12/08 13:59:17;;;;;;;10.40;4.82;;;;;;;;;;5080583;28;20053;-82
2022/12/08 14:01:45;;;;;;;8.25;4.50;;;;;;;;;;5080096;28;20057;-82
2022/12/08 14:04:16;;;;;;;10.25;4.72;;;;;;;;;;5082234;28;20048;-82
2022/12/08 14:07:03;;;;;;;9.10;4.93;;;;;;;;;;5071494;28;20048;-83
2022/12/08 14:09:33;;;;;;;10.93;5.10;;;;;;;;;;5071892;28;20672;-80
2022/12/08 14:12:02;;;;;;;10.80;5.47;;;;;;;;;;5072259;28;20052;-81
2022/12/08 14:14:33;;;;;;;9.65;4.95;;;;;;;;;;5070512;28;20075;-81
2022/12/08 14:17:21;;;;;;;10.50;5.05;;;;;;;;;;5072961;28;20400;-81
2022/12/08 14:19:57;;;;;;;8.25;5.03;;;;;;;;;;5072638;28;20055;-81
2022/12/08 14:22:30;;;;;;;11.23;5.25;;;;;;;;;;5075729;28;20060;-81
2022/12/08 14:24:57;;;;;;;9.30;5.13;;;;;;;;;;5075593;28;20047;-82
2022/12/08 14:27:25;;;;;;;9.45;5.35;;;;;;;;;;5073045;28;20052;-79
2022/12/08 14:29:54;;;;;;;14.63;5.55;;;;;;;;;;5077205;28;20075;-80
2022/12/08 14:32:20;;;;;;;9.88;5.20;;;;;;;;;;5079438;28;20341;-79
2022/12/08 14:34:51;;;;;;;9.35;5.07;;;;;;;;;;5084366;28;20052;-81
2022/12/08 14:37:18;;;;;;;10.05;4.90;;;;;;;;;;5084899;28;20147;-81
2022/12/08 14:39:44;;;;;;;10.88;5.30;;;;;;;;;;5083308;28;20056;-81
2022/12/08 14:42:19;;;;;;;11.43;5.63;;;;;;;;;;5073023;28;20493;-81
2022/12/08 14:44:46;;;;;;;11.13;5.28;;;;;;;;;;5086243;28;20036;-81
2022/12/08 14:47:17;;;;;;;9.95;5.28;;;;;;;;;;5095018;28;20130;-81